Tiempo atmosférico en la estación meteorológica de Ayamonte, Huelva (2 m.)



Fecha
DESCASC
Temp. máxima en grados centígrados (hora)
DESCASC
Temp. mínima en grados centígrados (hora)
DESCASC
Temp. media en grados centígrados
DESCASC
Racha de viento máxima en m/sg (hora)
DESCASC
Velocidad máxima media en intervalos de 10 minutos(hora)
DESCASC
Precipitaciones diarias en mm
DESCASC
Precipitaciones de 00:00 a 06:00 en mm
DESCASC
Precipitaciones de 06:00 a 12:00 en mm
DESCASC
Precipitaciones de 12:00 a 18:00 en mm
DESCASC
Precipitaciones de 18:00 a 24:00 en mm
DESCASC
17-08-2018 -- (--) -- (--) -- 7.78 (16:20) 5 (14:30) 0 0 0 0 0
16-08-2018 25.3 (15:50) 17.5 (03:20) 21.4 6.39 (14:20) 3.06 (14:10) 0 0 0 0 0
15-08-2018 25.5 (14:40) 17.4 (07:20) 21.4 7.22 (13:20) 3.89 (16:30) 0 0 0 0 0
14-08-2018 -- (--) -- (--) -- 10 (03:10) 4.72 (01:30) 0 0 0 0 0
13-08-2018 31.2 (13:30) 19.1 (07:40) 25.2 9.72 (07:20) 5.28 (16:00) 0 0 0 0 0
12-08-2018 29.8 (15:50) 20.5 (00:00) 25.1 8.89 (23:50) 5 (17:20) 0 0 0 0 0
11-08-2018 32.7 (17:10) 20.6 (00:00) 26.7 8.89 (01:30) 3.61 (01:30) 0 0 0 0 0
10-08-2018 34.8 (14:20) 17.6 (00:00) 26.2 12.22 (02:50) 5.56 (01:00) 0 0 0 0 0
09-08-2018 31.4 (15:30) 19.4 (00:00) 25.4 13.33 (02:00) 5.56 (02:30) 0 0 0 0 0
08-08-2018 29.8 (20:00) 17.9 (00:00) 23.8 13.33 (05:20) 6.11 (05:20) 0 0 0 0 0
07-08-2018 36.3 (17:40) 19.6 (00:00) 27.9 11.94 (08:10) 5.83 (05:30) 0 0 0 0 0
06-08-2018 33.3 (14:50) 21.1 (00:00) 27.2 8.61 (20:00) 4.72 (20:00) 0 0 0 0 0
05-08-2018 31.1 (13:20) 20.4 (00:00) 25.8 7.22 (19:40) 4.17 (20:50) 0 0 0 0 0
04-08-2018 36.9 (12:10) 23.3 (23:59) 30.1 8.33 (05:20) 4.17 (20:00) 0.7 0 0 0 0.7
03-08-2018 36.6 (13:20) 21.9 (00:00) 29.2 6.11 (14:30) 3.61 (14:20) 0 0 0 0 0
02-08-2018 -- (--) -- (--) -- 9.17 (16:50) 5 (16:50) 0 0 0 0 0
01-08-2018 -- (--) -- (--) -- 10.28 (04:00) 4.72 (03:50) 0 0 0 0 0
31-07-2018 32.8 (14:40) 19.2 (00:00) 26 11.67 (07:30) 5.56 (02:00) 0 0 0 0 0
30-07-2018 28.5 (13:10) 17.5 (00:00) 23 10.28 (16:10) 6.39 (15:40) 0 0 0 0 0
29-07-2018 27.1 (13:40) 17.1 (00:00) 22.1 15.83 (10:00) 5.28 (14:30) 0 0 0 0 0
28-07-2018 26.8 (12:30) 16.6 (00:00) 21.7 11.39 (16:30) 6.11 (16:20) 0 0 0 0 0
27-07-2018 31.4 (13:40) 17.7 (00:00) 24.6 11.67 (23:50) 5.28 (10:10) 0 0 0 0 0
26-07-2018 -- (--) -- (--) -- 12.22 (18:40) 5.83 (14:40) 0 0 0 0 0
25-07-2018 -- (--) -- (--) -- 9.44 (01:10) 4.72 (16:40) 0 0 0 0 0
24-07-2018 29 (14:10) 16.9 (00:00) 22.9 21.39 (17:10) 6.11 (16:40) 0 0 0 0 0
23-07-2018 -- (--) -- (--) -- 8.89 (23:20) 3.89 (23:50) 0 0 0 0 0
22-07-2018 27.8 (12:40) 17.9 (00:00) 22.8 11.11 (05:30) 5 (15:50) 0 0 0 0 0
21-07-2018 -- (--) -- (--) -- 10.83 (19:00) 5.83 (19:30) 0 0 0 0 0
20-07-2018 -- (--) -- (--) -- 11.11 (01:50) 5.28 (17:10) 0 0 0 0 0

Gráficas

Temp. máximas Temp. mínimas Temp. medias Precipitaciones Rachas de viento máximas Velocidades máximas media en intervalos de 10 minutos

Datos horarios

Fecha y hora oficial Temperatura (ºC) Velocidad del viento (km/h) Dirección del viento Racha (km/h) Dirección de racha Precipitación (mm) Presión (hPa) Tendencia (hPa) Humedad (%)
2018-08-18 23:00:00 25.4 3 Oeste 8 Oeste 0 1013.3 2.1 61
2018-08-18 22:00:00 26.5 6 Sudoeste 14 Oeste 0 1012.7 1.2 55
2018-08-18 21:00:00 27.9 8 Sudoeste 15 Oeste 0 1011.8 0.3 52
2018-08-18 20:00:00 29.1 9 Sudoeste 17 Sur 0 1011.2 -- 49
2018-08-18 19:00:00 30.1 11 Sudoeste 20 Sudoeste 0 1011.5 -1.1 47
2018-08-18 18:00:00 30.3 12 Sudoeste 20 Sudoeste 0 1011.5 -2 46
2018-08-18 17:00:00 30.5 12 Sudoeste 21 Sudoeste 0 -- -- 44
2018-08-18 16:00:00 30.7 12 Sudoeste 18 Sudoeste 0 1012.6 -1.8 43
2018-08-18 15:00:00 30.3 9 Sudoeste 18 Sur 0 1013.5 -- 42
2018-08-18 14:00:00 31.4 6 Sur 16 Sudoeste 0 1013.9 -- 41
2018-08-18 13:00:00 30.1 9 Sur 16 Sur 0 1014.4 -- 43
2018-08-18 12:00:00 29.6 8 Sur 14 Sur 0 -- -- 44
2018-08-18 11:00:00 -- 2 Norte 6 Norte 0 -- -- --
2018-08-18 10:00:00 -- 3 Norte 8 Norte 0 -- -- --
2018-08-18 09:00:00 22.3 2 Norte 6 Noroeste 0 1014 0.9 70
2018-08-18 08:00:00 20 0 Calma 6 Este 0 1013.8 0.8 76
2018-08-18 07:00:00 20.8 3 Este 6 Este 0 1013.5 0.5 70
2018-08-18 06:00:00 22.2 0 Calma 10 Norte 0 1013.1 -0.1 64
2018-08-18 05:00:00 22.8 2 Nordeste 11 Norte 0 1013 -0.5 62
2018-08-18 04:00:00 24.1 6 Norte 17 Noroeste 0 1013 -0.5 58
2018-08-18 03:00:00 24.4 6 Norte 15 Norte 0 1013.2 -0.3 56
2018-08-18 02:00:00 24.3 5 Norte 15 Noroeste 0 1013.5 0.2 56
2018-08-18 01:00:00 21.8 0 Calma 5 Norte 0 1013.5 0.7 77
2018-08-18 00:00:00 22.6 0 Calma 3 Sur 0 1013.5 0.9 73
2018-08-17 23:00:00 23.5 0 Calma 6 Sudoeste 0 1013.3 0.6 68
2018-08-17 22:00:00 23.5 3 Oeste 13 Sudoeste 0 1012.8 -0.2 67
2018-08-17 21:00:00 24.3 9 Sudoeste 25 Sudoeste 0 1012.6 -- 65
2018-08-17 20:00:00 24.9 12 Sudoeste 21 Oeste 0 1012.7 -- 64
2018-08-17 19:00:00 24.8 13 Sudoeste 27 Sudoeste 0 1013 -- 61
2018-08-17 18:00:00 -- 16 Sudoeste 25 Sudoeste 0 -- -- --
2018-08-17 17:00:00 -- 15 Sudoeste 28 Sudoeste 0 -- -- --
2018-08-17 16:00:00 -- 15 Sudoeste 27 Sur 0 -- -- --
2018-08-17 15:00:00 -- 18 Sudoeste 27 Sudoeste 0 -- -- --
2018-08-17 14:00:00 25.7 15 Sudoeste 24 Sudoeste 0 1015.4 -0.1 63
2018-08-17 13:00:00 25.2 12 Sudoeste 18 Sudoeste 0 1015.8 0.3 63
2018-08-17 12:00:00 24.4 12 Sudoeste 18 Sudoeste 0 1015.6 0.4 65
2018-08-17 11:00:00 23.6 5 Noroeste 18 Norte 0 1015.5 0.3 60
2018-08-17 10:00:00 21.5 6 Noroeste 21 Noroeste 0 1015.5 0.7 70
2018-08-17 09:00:00 19.4 12 Norte 24 Noroeste 0 1015.2 0.3 76
2018-08-17 08:00:00 18.6 8 Norte 17 Norte 0 1015.2 0.4 78
2018-08-17 07:00:00 18.7 6 Norte 13 Norte 0 1014.8 -0.2 81
2018-08-17 06:00:00 18.6 0 Calma 3 Este 0 1014.9 -0.5 91
2018-08-17 05:00:00 18.9 0 Calma 4 Noroeste 0 1014.8 -0.7 91
2018-08-17 04:00:00 19 0 Calma 4 Noroeste 0 1015 -- 90
2018-08-17 03:00:00 19.3 0 Calma 2 Sur 0 1015.4 0.2 88
2018-08-17 02:00:00 19.6 0 Calma 6 Sudoeste 0 1015.5 0.3 85
2018-08-17 01:00:00 19.9 0 Calma 5 Sudoeste 0 -- -- 83
2018-08-17 00:00:00 20.3 3 Sudoeste 6 Sudoeste 0 1015.2 1.2 79
2018-08-16 23:00:00 20.5 3 Oeste 8 Sudoeste 0 1015.2 1.1 76
2018-08-16 22:00:00 21.3 4 Sudoeste 13 Sudoeste 0 1014.6 0 71
2018-08-16 21:00:00 22 8 Sudoeste 14 Sur 0 1014 -1 66
2018-08-16 20:00:00 22.7 9 Sur 15 Sur 0 1014.1 -1.1 62
2018-08-16 19:00:00 24 8 Sudoeste 21 Sur 0 1014.6 -1.1 59
2018-08-16 18:00:00 23.7 10 Sur 19 Sur 0 1015 -1.2 58
2018-08-16 17:00:00 24 10 Sur 21 Sur 0 1015.2 -1.4 55
2018-08-16 16:00:00 24.1 11 Sur 20 Sudoeste 0 1015.7 -1 52
2018-08-16 15:00:00 24.5 9 Sur 23 Sur 0 1016.2 -0.5 53
2018-08-16 14:00:00 24.7 11 Sur 21 Sur 0 1016.6 0.5 55
2018-08-16 13:00:00 23.4 9 Sur 19 Sur 0 1016.7 0.9 61
2018-08-16 12:00:00 22.7 8 Sur 17 Sudeste 0 1016.7 1.4 58
2018-08-16 11:00:00 22.3 10 Sur 19 Sudeste 0 1016.1 1.1 66
2018-08-16 10:00:00 21.2 5 Este 13 Este 0 1015.8 1 79
2018-08-16 09:00:00 20.7 5 Este 10 Nordeste 0 1015.3 0.7 83
2018-08-16 08:00:00 20.1 5 Este 12 Nordeste 0 1015 0.3 84
2018-08-16 07:00:00 19.8 6 Nordeste 12 Nordeste 0 1014.8 -0.2 84
2018-08-16 06:00:00 19.5 0 Calma 9 Nordeste 0 1014.6 -0.3 83
2018-08-16 05:00:00 19.5 3 Nordeste 9 Nordeste 0 1014.7 -0.2 90
2018-08-16 04:00:00 18.7 4 Nordeste 8 Nordeste 0 1015 0.1 93
2018-08-16 03:00:00 17.9 0 Calma 5 Nordeste 0 1014.9 0.2 93
2018-08-16 02:00:00 18.2 3 Nordeste 5 Este 0 1014.9 0.6 93
2018-08-16 01:00:00 18.7 2 Nordeste 7 Este 0 1014.9 1 92
2018-08-16 00:00:00 19.2 3 Nordeste 11 Este 0 1014.7 1.1 92
2018-08-15 23:00:00 20 3 Este 6 Este 0 1014.3 0.5 88
2018-08-15 22:00:00 21.1 0 Calma 6 Sudeste 0 1013.9 -0.2 82
2018-08-15 21:00:00 22.3 4 Sur 14 Sudoeste 0 1013.6 -0.8 75
2018-08-15 20:00:00 23 9 Sudoeste 17 Sudoeste 0 1013.8 -1 71
2018-08-15 19:00:00 23.8 10 Sudoeste 21 Sudoeste 0 1014.1 -0.9 72
2018-08-15 18:00:00 23.9 12 Sudoeste 21 Sudoeste 0 1014.4 -1 71
2018-08-15 17:00:00 24.4 12 Sur 22 Sur 0 1014.8 -0.9 70
2018-08-15 16:00:00 24.7 10 Sur 24 Sudeste 0 1015 -0.7 71
2018-08-15 15:00:00 24.8 9 Sudeste 25 Sudeste 0 1015.4 -- 70
2018-08-15 14:00:00 25.4 10 Sudeste 26 Sudeste 0 1015.7 0.2 69
2018-08-15 13:00:00 24.5 10 Sudeste 24 Sudeste 0 1015.7 0.2 68
2018-08-15 12:00:00 -- 10 Sudeste 18 Este 0 -- -- --
2018-08-15 11:00:00 23.7 8 Este 15 Este 0 1015.5 0.8 67
2018-08-15 10:00:00 21.9 4 Nordeste 11 Norte 0 1015.5 0.9 71
2018-08-15 09:00:00 19.2 4 Norte 8 Nordeste 0 1015.1 0.9 81
2018-08-15 08:00:00 17.4 0 Calma 14 Nordeste 0 1014.7 0.6 85
2018-08-15 07:00:00 17.7 6 Este 10 Este 0 1014.6 0.5 81
2018-08-15 06:00:00 18.7 3 Nordeste 18 Norte 0 1014.2 -0.3 77
2018-08-15 05:00:00 19.1 7 Norte 17 Norte 0 1014.1 -0.8 76
2018-08-15 04:00:00 19.5 6 Norte 18 Noroeste 0 1014.1 -- 74
2018-08-15 03:00:00 20 7 Norte 23 Noroeste 0 1014.5 -0.3 73
2018-08-15 02:00:00 20.7 6 Norte 16 Norte 0 1014.9 0.1 71
2018-08-15 01:00:00 20.7 4 Norte 12 Noroeste 0 -- -- 77
2018-08-15 00:00:00 20.4 6 Este 9 Este 0 1014.8 0.8 86
2018-08-14 23:00:00 20.7 0 Calma 7 Sudeste 0 1014.8 0.7 85
2018-08-14 22:00:00 21.9 3 Sur 8 Sudoeste 0 1014.3 -0.3 79
2018-08-14 21:00:00 22.5 5 Sudoeste 12 Sudoeste 0 1014 -1.3 75
2018-08-14 20:00:00 23.1 7 Sudoeste 16 Sur 0 1014.1 -1.3 69
2018-08-14 19:00:00 23.2 9 Sudoeste 22 Sudoeste 0 1014.6 -- 72
2018-08-14 18:00:00 23.9 13 Sudoeste 23 Sudoeste 0 1015.3 -- 68
2018-08-14 17:00:00 24.7 13 Sudoeste 25 Sudoeste 0 1015.4 -0.8 63
2018-08-14 16:00:00 -- 13 Sudoeste 26 Sudoeste 0 -- -- --
2018-08-14 15:00:00 26.2 14 Sudoeste 25 Sudoeste 0 -- -- 54
2018-08-14 14:00:00 27.3 14 Sudoeste 23 Sudoeste 0 1016.2 0.4 48
2018-08-14 13:00:00 28.8 5 Sudoeste 14 Norte 0 1016.2 0.5 45
2018-08-14 12:00:00 25.5 6 Norte 20 Norte 0 1016.1 0.5 55
2018-08-14 11:00:00 22.5 10 Noroeste 31 Norte 0 1015.8 0.6 65
2018-08-14 10:00:00 19.9 10 Norte 33 Noroeste 0 1015.7 0.9 73
2018-08-14 09:00:00 17.8 10 Noroeste 33 Noroeste 0 1015.6 1.4 78
2018-08-14 08:00:00 16.8 12 Noroeste 26 Norte 0 1015.2 1.3 80
2018-08-14 07:00:00 17.3 10 Noroeste 31 Noroeste 0 1014.8 0.7 76
2018-08-14 06:00:00 18.1 12 Noroeste 27 Noroeste 0 1014.2 0.1 73
2018-08-14 05:00:00 19 13 Noroeste 33 Noroeste 0 1013.9 -0.3 68
2018-08-14 04:00:00 20.2 12 Noroeste 36 Norte 0 1014.1 0.2 64
2018-08-14 03:00:00 21.4 15 Noroeste 36 Noroeste 0 1014.1 0.4 61
2018-08-14 02:00:00 22.7 16 Noroeste 35 Noroeste 0 1014.2 1 58
2018-08-14 01:00:00 24.1 13 Noroeste 32 Noroeste 0 1013.9 1.3 56
2018-08-14 00:00:00 25.4 11 Noroeste 23 Norte 0 1013.7 1.4 53
2018-08-13 23:00:00 25.8 10 Noroeste 23 Noroeste 0 1013.2 0.9 55
2018-08-13 22:00:00 22.7 4 Sudoeste 14 Sudoeste 0 1012.6 0 70
2018-08-13 21:00:00 24.2 10 Sudoeste 29 Sudoeste 0 1012.3 -0.7 61
2018-08-13 20:00:00 26 15 Sudoeste 30 Sudoeste 0 1012.3 -0.9 55
2018-08-13 19:00:00 27.6 13 Sudoeste 27 Sudoeste 0 1012.6 -1.4 52
2018-08-13 18:00:00 26 12 Sudoeste 22 Sudoeste 0 1013 -1.2 62
2018-08-13 17:00:00 27.1 14 Sudoeste 29 Sudoeste 0 1013.2 -1.4 61
2018-08-13 16:00:00 27.2 19 Sudoeste 31 Sudoeste 0 1014 -1.2 59
2018-08-13 15:00:00 27.7 17 Sudoeste 26 Sudoeste 0 1014.2 -1.2 55
2018-08-13 14:00:00 28.7 14 Sudoeste 21 Sudoeste 0 1014.6 -0.9 52
2018-08-13 13:00:00 28.8 8 Noroeste 22 Noroeste 0 1015.2 0.1 46
2018-08-13 12:00:00 27.3 8 Noroeste 22 Noroeste 0 1015.4 0.8 55
2018-08-13 11:00:00 24.5 10 Noroeste 24 Norte 0 1015.5 1.6 65
2018-08-13 10:00:00 22.4 12 Norte 25 Norte 0 1015.1 1.6 74
2018-08-13 09:00:00 20.7 11 Norte 30 Norte 0 1014.6 1.2 82
2018-08-13 08:00:00 19.3 12 Norte 35 Norte 0 1013.9 0.8 85
2018-08-13 07:00:00 19.5 10 Noroeste 32 Norte 0 1013.5 0 81
2018-08-13 06:00:00 20.2 10 Norte 29 Noroeste 0 1013.4 -0.2 73
2018-08-13 05:00:00 20.9 14 Noroeste 29 Norte 0 1013.1 -0.4 70
2018-08-13 04:00:00 21.7 9 Noroeste 25 Noroeste 0 1013.5 -0.4 68
2018-08-13 03:00:00 22.8 11 Noroeste 33 Noroeste 0 1013.6 0 66
2018-08-13 02:00:00 23.8 14 Norte 33 Norte 0 1013.5 0.3 63
2018-08-13 01:00:00 25.2 10 Noroeste 31 Noroeste 0 1013.9 1.3 59
2018-08-13 00:00:00 26.5 14 Noroeste 32 Norte 0 1013.6 1.4 55
2018-08-12 23:00:00 26.1 8 Noroeste 15 Noroeste 0 1013.2 0.8 55
2018-08-12 22:00:00 23.7 0 Calma 12 Oeste 0 1012.6 -0.3 66
2018-08-12 21:00:00 24.6 9 Oeste 28 Sudoeste 0 1012.2 -1.3 63
2018-08-12 20:00:00 26 13 Sudoeste 31 Sudoeste 0 1012.4 -1.7 67
2018-08-12 19:00:00 27.3 17 Sudoeste 28 Sudoeste 0 1012.9 -1.8 67
2018-08-12 18:00:00 29 16 Sudoeste 30 Sudoeste 0 1013.5 -1.7 62
2018-08-12 17:00:00 29 14 Sudoeste 25 Sudoeste 0 1014.1 -1.4 62
2018-08-12 16:00:00 29.3 14 Sudoeste 24 Sudoeste 0 1014.7 -0.9 61
2018-08-12 15:00:00 29.1 14 Sudoeste 22 Sur 0 1015.2 -0.6 58
2018-08-12 14:00:00 28.9 10 Sudoeste 18 Sudoeste 0 1015.5 0 54
2018-08-12 13:00:00 28.8 9 Sudoeste 15 Sudoeste 0 1015.6 0.3 49
2018-08-12 12:00:00 28.5 8 Sudoeste 14 Oeste 0 1015.8 0.8 49
2018-08-12 11:00:00 27.3 4 Sudoeste 9 Sudoeste 0 1015.5 0.9 49
2018-08-12 10:00:00 25.2 3 Noroeste 8 Noroeste 0 1015.3 1.1 52
2018-08-12 09:00:00 21.9 3 Norte 6 Sur 0 1015 0.9 61
2018-08-12 08:00:00 21.1 0 Calma 11 Norte 0 1014.6 0.5 58
2018-08-12 07:00:00 21.8 7 Noroeste 16 Noroeste 0 1014.2 -0.2 57
2018-08-12 06:00:00 22.9 4 Norte 14 Noroeste 0 1014.1 -0.8 52
2018-08-12 05:00:00 23 2 Nordeste 9 Norte 0 1014.1 -1 52
2018-08-12 04:00:00 24 4 Norte 9 Noroeste 0 1014.4 -0.9 48
2018-08-12 03:00:00 23.3 2 Nordeste 8 Noroeste 0 1014.9 -0.4 48
2018-08-12 02:00:00 25 4 Norte 14 Norte 0 1015.1 -0.2 42
2018-08-12 01:00:00 25.9 2 Norte 14 Norte 0 1015.3 0.7 43
2018-08-12 00:00:00 25.7 6 Noroeste 13 Norte 0 1015.3 1 57
2018-08-11 23:00:00 25.6 2 Sudoeste 12 Sudoeste 0 1015.3 1.1 67
2018-08-11 22:00:00 25.8 8 Sudoeste 17 Sudoeste 0 1014.6 0.1 67
2018-08-11 21:00:00 27.9 8 Sudoeste 19 Oeste 0 1014.3 -0.5 58
2018-08-11 20:00:00 30.3 10 Oeste 22 Oeste 0 1014.2 -1.2 56
2018-08-11 19:00:00 30.9 12 Sudoeste 22 Sudoeste 0 1014.5 -1.7 53
2018-08-11 18:00:00 31.6 13 Sudoeste 21 Sudoeste 0 1014.8 -2 48
2018-08-11 17:00:00 32.4 10 Sudoeste 17 Sudoeste 0 1015.4 -1.7 45
2018-08-11 16:00:00 31.1 10 Sudoeste 17 Sur 0 1016.2 -1.5 48
2018-08-11 15:00:00 31 8 Sudoeste 17 Sudoeste 0 1016.8 -0.8 49
2018-08-11 14:00:00 30.3 6 Sudoeste 14 Sudoeste 0 1017.1 -0.7 49
2018-08-11 13:00:00 30.9 5 Sur 14 Sur 0 1017.7 -0.1 49
2018-08-11 12:00:00 30 6 Sudeste 13 Este 0 1017.6 0 49
2018-08-11 11:00:00 27.2 3 Noroeste 15 Noroeste 0 1017.8 0.8 49
2018-08-11 10:00:00 24 5 Norte 16 Noroeste 0 1017.8 1 52
2018-08-11 09:00:00 21.7 4 Norte 13 Norte 0 1017.6 1.3 55
2018-08-11 08:00:00 20.7 2 Norte 15 Norte 0 1017 0.4 55
2018-08-11 07:00:00 20.8 5 Norte 16 Norte 0 1016.8 -0.3 55
2018-08-11 06:00:00 21.5 5 Norte 18 Noroeste 0 1016.3 -0.9 54
2018-08-11 05:00:00 22.2 6 Norte 22 Noroeste 0 1016.6 -0.9 52
2018-08-11 04:00:00 22.9 9 Noroeste 24 Noroeste 0 1017.1 -0.4 50
2018-08-11 03:00:00 23.5 9 Noroeste 24 Noroeste 0 1017.2 -0.1 49
2018-08-11 02:00:00 24.3 11 Noroeste 32 Norte 0 1017.5 0.8 48
2018-08-11 01:00:00 25.2 11 Noroeste 23 Norte 0 1017.5 1.4 46
2018-08-11 00:00:00 26.6 11 Noroeste 23 Norte 0 1017.3 2 45
2018-08-10 23:00:00 24 3 Oeste 7 Sudoeste 0 1016.7 -- 54
2018-08-10 22:00:00 25.1 4 Sudoeste 9 Sudoeste 0 1016.1 -- 52
2018-08-10 21:00:00 26.9 5 Sudoeste 12 Sudoeste 0 1015.3 -- 50
2018-08-10 20:00:00 28.6 9 Sudoeste 19 Sur 0 -- -- 49
2018-08-10 19:00:00 30.3 8 Sudoeste 27 Sudoeste 0 -- -- 43
2018-08-10 18:00:00 31.1 14 Sudoeste 26 Sudoeste 0 -- -- --
2018-08-10 17:00:00 -- 14 Sudoeste 24 Oeste 0 -- -- --
2018-08-10 16:00:00 30.2 12 Sudoeste 21 Sudoeste 0 1016.2 -0.8 43
2018-08-10 15:00:00 31.9 11 Sudoeste 22 Sudoeste 0 1016.5 -0.6 43
2018-08-10 14:00:00 32.3 7 Noroeste 22 Noroeste 0 1016.6 -0.3 31
2018-08-10 13:00:00 31.1 8 Noroeste 18 Norte 0 1017 0.1 37
2018-08-10 12:00:00 28 5 Norte 24 Norte 0 1017.1 0.5 45
2018-08-10 11:00:00 24.2 12 Noroeste 27 Norte 0 1016.9 0.5 53
2018-08-10 10:00:00 20.8 11 Norte 28 Noroeste 0 1016.9 0.8 61
2018-08-10 09:00:00 18.6 13 Norte 26 Noroeste 0 1016.6 0.7 66
2018-08-10 08:00:00 17.6 10 Norte 30 Noroeste 0 1016.4 0.5 67
2018-08-10 07:00:00 17.9 14 Noroeste 36 Norte 0 1016.1 0.2 66
2018-08-10 06:00:00 18.4 14 Norte 32 Noroeste 0 1015.9 -0.1 65
2018-08-10 05:00:00 18.8 13 Noroeste 39 Noroeste 0 1015.9 -0.4 63
2018-08-10 04:00:00 19.8 13 Noroeste 34 Norte 0 1015.9 -0.3 60
2018-08-10 03:00:00 21.1 19 Noroeste 44 Norte 0 1016 0.4 57
2018-08-10 02:00:00 22 16 Noroeste 38 Noroeste 0 1016.3 1.1 55
2018-08-10 01:00:00 23.2 20 Noroeste 38 Norte 0 1016.2 1.6 52
2018-08-10 00:00:00 24.6 14 Noroeste 31 Noroeste 0 1015.6 1.3 49
2018-08-09 23:00:00 20.7 5 Noroeste 11 Oeste 0 1015.2 0.8 78
2018-08-09 22:00:00 22.2 5 Sudoeste 18 Oeste 0 1014.6 -0.1 71
2018-08-09 21:00:00 24 12 Oeste 25 Sudoeste 0 1014.3 -0.6 63
2018-08-09 20:00:00 26 13 Sudoeste 27 Oeste 0 1014.4 -0.9 55
2018-08-09 19:00:00 26.5 14 Sudoeste 34 Sudoeste 0 1014.7 -1.1 55
2018-08-09 18:00:00 27.2 18 Sudoeste 30 Sudoeste 0 1014.9 -1.2 55
2018-08-09 17:00:00 27.5 15 Sudoeste 28 Sudoeste 0 1015.3 -1 56
2018-08-09 16:00:00 27.9 15 Sudoeste 30 Sudoeste 0 1015.8 0.1 51
2018-08-09 15:00:00 29.8 9 Norte 25 Norte 0 1016.1 -0.3 37
2018-08-09 14:00:00 28.8 10 Noroeste 28 Noroeste 0 1016.3 0.1 40
2018-08-09 13:00:00 26.7 12 Noroeste 30 Noroeste 0 1015.7 -0.6 47
2018-08-09 12:00:00 25.6 12 Noroeste 29 Norte 0 1016.4 0.7 56
2018-08-09 11:00:00 23.9 12 Norte 29 Noroeste 0 1016.2 1.2 61
2018-08-09 10:00:00 22.3 10 Norte 36 Noroeste 0 1016.3 1.7 68
2018-08-09 09:00:00 20.6 11 Noroeste 33 Norte 0 1015.7 -- 74
2018-08-09 08:00:00 19.4 14 Noroeste 34 Noroeste 0 1015 1.2 77
2018-08-09 07:00:00 19.4 12 Noroeste 32 Noroeste 0 1014.6 0.8 76
2018-08-09 06:00:00 19.6 13 Norte 34 Noroeste 0 -- -- 75
2018-08-09 05:00:00 19.8 14 Norte 40 Norte 0 1013.8 -0.1 75
2018-08-09 04:00:00 20.1 18 Norte 38 Noroeste 0 1013.8 0.3 73
2018-08-09 03:00:00 20.7 17 Noroeste 46 Noroeste 0 1013.7 0.3 70
2018-08-09 02:00:00 21.4 20 Noroeste 48 Noroeste 0 1013.9 1 67
2018-08-09 01:00:00 22.2 17 Noroeste 39 Noroeste 0 1013.5 1.7 63
2018-08-09 00:00:00 23.3 14 Noroeste 38 Noroeste 0 1013.4 -- 58
2018-08-08 23:00:00 24.9 15 Noroeste 33 Norte 0 1012.9 2.7 54
2018-08-08 22:00:00 26.4 10 Noroeste 34 Norte 0 1011.8 1.6 47
2018-08-08 21:00:00 28 12 Noroeste 33 Noroeste 0 -- -- 40
2018-08-08 20:00:00 29.7 9 Noroeste 27 Noroeste 0 1010.2 -0.9 40
2018-08-08 19:00:00 27.9 8 Sudoeste 26 Sudoeste 0 1010.2 -1.6 56
2018-08-08 18:00:00 26.6 18 Sudoeste 29 Sudoeste 0 1010.6 -1.6 59
2018-08-08 17:00:00 25.7 16 Sudoeste 27 Sudoeste 0 1011.1 -1.2 62
2018-08-08 16:00:00 26.7 17 Sudoeste 28 Sudoeste 0 1011.8 -0.6 58
2018-08-08 15:00:00 26.3 16 Sudoeste 26 Sudoeste 0 1012.2 -0.2 58
2018-08-08 14:00:00 26.8 12 Sudoeste 24 Sudoeste 0 1012.3 0.2 54
2018-08-08 13:00:00 27.3 11 Noroeste 26 Noroeste 0 1012.4 0.3 48
2018-08-08 12:00:00 25.3 10 Noroeste 26 Noroeste 0 1012.4 1 56
2018-08-08 11:00:00 21.9 15 Norte 30 Noroeste 0 1012.1 1.2 65
2018-08-08 10:00:00 19.9 17 Noroeste 37 Norte 0 1012.1 1.9 73
2018-08-08 09:00:00 18.4 16 Noroeste 44 Noroeste 0 1011.4 1.6 79
2018-08-08 08:00:00 17.9 18 Noroeste 40 Norte 0 1010.9 0.6 79
2018-08-08 07:00:00 18.2 18 Noroeste 46 Norte 0 1010.2 -0.2 77
2018-08-08 06:00:00 18.8 20 Noroeste 48 Noroeste 0 1009.8 -0.9 74
2018-08-08 05:00:00 19.3 18 Noroeste 43 Norte 0 1010.3 -0.8 70
2018-08-08 04:00:00 20.2 19 Noroeste 43 Norte 0 1010.4 -0.6 66
2018-08-08 03:00:00 21.1 18 Noroeste 35 Norte 0 1010.7 0.1 61
2018-08-08 02:00:00 22.6 10 Noroeste 40 Norte 0 1011.1 1.2 57
2018-08-08 01:00:00 24.4 15 Noroeste 35 Norte 0 1011 2.2 53
2018-08-08 00:00:00 26.5 15 Noroeste 39 Noroeste 0 1010.6 2.3 47
2018-08-07 23:00:00 28.4 16 Noroeste 36 Noroeste 0 1009.9 1.7 40
2018-08-07 22:00:00 30.1 14 Noroeste 33 Noroeste 0 1008.8 0.4 37
2018-08-07 21:00:00 32.3 12 Noroeste 29 Norte 0 1008.3 -0.3 34
2018-08-07 20:00:00 34.2 11 Norte 28 Norte 0 1008.2 -0.9 31
2018-08-07 19:00:00 35.4 10 Noroeste 24 Norte 0 1008.4 -- 30
2018-08-07 18:00:00 35.8 11 Noroeste 26 Noroeste 0 1008.6 -1.8 30
2018-08-07 17:00:00 35.8 7 Norte 27 Noroeste 0 1009.1 -1.7 30
2018-08-07 16:00:00 -- 9 Noroeste 28 Norte 0 -- -- --
2018-08-07 15:00:00 33.4 10 Noroeste 28 Noroeste 0 1010.4 -1.2 37
2018-08-07 14:00:00 30.5 13 Noroeste 33 Norte 0 1010.8 -0.4 43
2018-08-07 13:00:00 28.2 15 Norte 34 Norte 0 1011.4 -0.1 49
2018-08-07 12:00:00 26.1 12 Noroeste 37 Norte 0 1011.6 0.1 55
2018-08-07 11:00:00 23.2 19 Noroeste 40 Noroeste 0 1011.2 0.3 62
2018-08-07 10:00:00 21.4 16 Norte 41 Noroeste 0 1011.5 1.1 67
2018-08-07 09:00:00 20.3 13 Norte 43 Noroeste 0 1011.5 1.3 70
2018-08-07 08:00:00 19.7 17 Norte 40 Noroeste 0 1010.9 0.2 70
2018-08-07 07:00:00 20.3 19 Norte 39 Norte 0 1010.4 -0.4 68
2018-08-07 06:00:00 20.9 15 Noroeste 33 Norte 0 1010.2 -0.8 66
2018-08-07 05:00:00 21.9 13 Norte 30 Norte 0 1010.7 -- 64
2018-08-07 04:00:00 23.4 9 Norte 24 Norte 0 1010.8 -- 58
2018-08-07 03:00:00 25.2 6 Norte 25 Norte 0 1011 0.3 52
2018-08-07 02:00:00 -- 0 Calma 24 Noroeste 0 -- -- --
2018-08-07 01:00:00 -- 8 Norte 21 Noroeste 0 -- -- --
2018-08-07 00:00:00 26.8 3 Nordeste 14 Noroeste 0 1010.7 0.8 55
2018-08-06 23:00:00 25.2 3 Nordeste 13 Oeste 0 1010.9 1.2 74
2018-08-06 22:00:00 26.1 8 Sur 16 Sudoeste 0 1010.3 -0.1 66
2018-08-06 21:00:00 28.7 6 Sur 28 Sudoeste 0 1009.9 -1 51
2018-08-06 20:00:00 30 17 Sudoeste 31 Sudoeste 0 1009.7 -1.8 46
2018-08-06 19:00:00 29.3 16 Sudoeste 26 Sudoeste 0 1010.4 -1.7 51
2018-08-06 18:00:00 31.1 15 Sudoeste 24 Sudoeste 0 1010.9 -1.7 42
2018-08-06 17:00:00 32.4 14 Sudoeste 24 Sudoeste 0 1011.5 -1.6 40
2018-08-06 16:00:00 32.7 12 Sudoeste 19 Sudoeste 0 1012.1 -1.2 40
2018-08-06 15:00:00 32.7 12 Sudoeste 20 Sur 0 1012.6 -0.6 39
2018-08-06 14:00:00 32.3 10 Sur 17 Sur 0 1013.1 -0.3 38
2018-08-06 13:00:00 31.6 7 Sur 15 Sudoeste 0 1013.3 0 39
2018-08-06 12:00:00 31.9 5 Sur 12 Sur 0 1013.2 0.1 40
2018-08-06 11:00:00 30.3 4 Sudoeste 9 Sudoeste 0 1013.4 0.5 43
2018-08-06 10:00:00 26.6 0 Calma 5 Noroeste 0 1013.3 0.7 62
2018-08-06 09:00:00 23 0 Calma 5 Noroeste 0 1013.1 0.8 74
2018-08-06 08:00:00 21.1 0 Calma 4 Noroeste 0 1012.9 0.6 79
2018-08-06 07:00:00 21.7 0 Calma 6 Este 0 1012.6 0.2 78
2018-08-06 06:00:00 22.3 2 Nordeste 6 Sudeste 0 1012.3 -0.4 80
2018-08-06 05:00:00 22.4 4 Nordeste 5 Este 0 1012.3 -0.9 73
2018-08-06 04:00:00 23.7 0 Calma 9 Oeste 0 1012.4 -0.6 60
2018-08-06 03:00:00 24.5 5 Oeste 8 Oeste 0 1012.7 0 58
2018-08-06 02:00:00 24.6 5 Oeste 9 Oeste 0 1013.2 0.8 58
2018-08-06 01:00:00 24.8 6 Oeste 14 Oeste 0 1013 1.3 59
2018-08-06 00:00:00 25.4 6 Oeste 15 Sudoeste 0 1012.7 1.5 58
2018-08-05 23:00:00 25.6 8 Sudoeste 21 Oeste 0 1012.4 1.4 58
2018-08-05 22:00:00 26.3 9 Sudoeste 22 Sudoeste 0 1011.7 0.5 58
2018-08-05 21:00:00 27.3 12 Sudoeste 24 Sudoeste 0 1011.2 -0.5 54
2018-08-05 20:00:00 28.9 13 Sudoeste 26 Sudoeste 0 1011 -1.2 47
2018-08-05 19:00:00 29.6 13 Sudoeste 23 Sudoeste 0 1011.2 -1.5 48
2018-08-05 18:00:00 29.7 13 Sudoeste 21 Sudoeste 0 1011.7 -1.7 45
2018-08-05 17:00:00 30.2 11 Sudoeste 19 Sudoeste 0 1012.2 -1.6 43
2018-08-05 16:00:00 30.3 10 Sudoeste 18 Sudoeste 0 1012.7 -1.1 43
2018-08-05 15:00:00 30.6 8 Sudoeste 15 Sudoeste 0 1013.4 -0.5 43
2018-08-05 14:00:00 29.9 9 Sudoeste 15 Sudoeste 0 1013.8 0.2 44
2018-08-05 13:00:00 30.3 7 Sur 14 Sur 0 1013.8 0.3 42
2018-08-05 12:00:00 30.3 7 Sur 13 Sur 0 1013.9 0.5 42
2018-08-05 11:00:00 28.7 0 Calma 6 Sudoeste 0 1013.6 0.7 53
2018-08-05 10:00:00 25.3 0 Calma 4 Nordeste 0 1013.5 0.8 68
2018-08-05 09:00:00 22.3 0 Calma 3 Este 0 1013.4 0.5 88
2018-08-05 08:00:00 20.7 0 Calma 4 Norte 0 1012.9 0.2 91
2018-08-05 07:00:00 20.6 0 Calma 3 Este 0 1012.7 -0.3 90
2018-08-05 06:00:00 21.1 3 Nordeste 5 Nordeste 0 1012.9 -0.6 90
2018-08-05 05:00:00 21.3 0 Calma 6 Noroeste 0 1012.7 -0.7 89
2018-08-05 04:00:00 21.5 0 Calma 2 Norte 0 1013 -0.6 88
2018-08-05 03:00:00 22 0 Calma 4 Este 0 1013.5 0.1 86
2018-08-05 02:00:00 22.4 0 Calma 6 Sudeste 0 1013.4 0.2 83
2018-08-05 01:00:00 22.8 2 Nordeste 5 Este 0 1013.6 0.8 82
2018-08-05 00:00:00 23.4 2 Este 5 Este 0 1013.4 0.5 80
2018-08-04 23:00:00 23.9 0 Calma 7 Sur 0 1013.2 0.2 78
2018-08-04 22:00:00 24.4 5 Sur 13 Sudoeste 0 1012.8 0.1 75
2018-08-04 21:00:00 25.1 9 Sudoeste 21 Sudoeste 0 1012.9 -0.5 70
2018-08-04 20:00:00 26.2 15 Sudoeste 30 Oeste 0 1013 -0.5 64
2018-08-04 19:00:00 27.7 9 Sur 27 Sudoeste 0.7 1012.7 -1.4 64
2018-08-04 18:00:00 29.3 13 Sudoeste 23 Sudoeste 0 1013.4 -1.1 53
2018-08-04 17:00:00 28.8 12 Sudoeste 24 Sudoeste 0 1013.5 -1.2 56
2018-08-04 16:00:00 28.7 13 Sudoeste 21 Sudoeste 0 1014.1 -0.4 58
2018-08-04 15:00:00 28.6 14 Sudoeste 23 Sudoeste 0 1014.5 -- 57
2018-08-04 14:00:00 29.3 12 Sur 20 Sur 0 1014.7 0.8 51
2018-08-04 13:00:00 31.7 11 Sudeste 23 Sudeste 0 1014.5 1.1 47
2018-08-04 12:00:00 36.6 5 Este 11 Este 0 -- -- 34
2018-08-04 11:00:00 34.6 2 Norte 16 Noroeste 0 1013.9 -- 36
2018-08-04 10:00:00 31.9 4 Norte 19 Nordeste 0 1013.4 1.4 37
2018-08-04 09:00:00 30.5 6 Norte 18 Norte 0 1012.9 1.4 37
2018-08-04 08:00:00 -- 8 Norte 23 Norte 0 -- -- --
2018-08-04 07:00:00 30.1 3 Norte 26 Norte 0 1012 -0.2 37
2018-08-04 06:00:00 30.8 7 Norte 30 Noroeste 0 1011.5 -1.5 36
2018-08-04 05:00:00 31 9 Norte 29 Noroeste 0 1011.5 -1.8 37
2018-08-04 04:00:00 30.1 7 Noroeste 18 Noroeste 0 1012.2 -1.4 40
2018-08-04 03:00:00 25.2 4 Sur 7 Sur 0 1013 -0.6 58
2018-08-04 02:00:00 25.6 0 Calma 5 Oeste 0 1013.3 0.1 60
2018-08-04 01:00:00 25.9 0 Calma 4 Sudoeste 0 1013.6 0.8 58
2018-08-04 00:00:00 27.1 0 Calma 8 Sudoeste 0 1013.6 1.1 52
2018-08-03 23:00:00 28.1 4 Oeste 9 Sudoeste 0 1013.2 0.7 47
2018-08-03 22:00:00 29.5 4 Sudoeste 11 Sudoeste 0 1012.8 0 43
2018-08-03 21:00:00 31.3 5 Sudoeste 12 Sudoeste 0 1012.5 -0.7 41
2018-08-03 20:00:00 33 8 Sudoeste 14 Sudoeste 0 1012.5 -1.4 39
2018-08-03 19:00:00 33.7 8 Sudoeste 18 Sudoeste 0 1012.8 -1.4 38
2018-08-03 18:00:00 33.4 12 Sudoeste 19 Sudoeste 0 1013.2 -1.3 39
2018-08-03 17:00:00 33.3 10 Sudoeste 19 Sudoeste 0 1013.9 -0.5 38
2018-08-03 16:00:00 33.4 12 Sudoeste 21 Sudoeste 0 1014.2 -0.2 37
2018-08-03 15:00:00 31.3 13 Sudoeste 22 Sudoeste 0 1014.5 0.2 43
2018-08-03 14:00:00 33.6 10 Sur 22 Sur 0 1014.4 0.4 39
2018-08-03 13:00:00 35.5 9 Sudeste 17 Este 0 1014.4 0.2 35
2018-08-03 12:00:00 34.6 10 Este 18 Este 0 1014.3 0.5 37
2018-08-03 11:00:00 32.5 9 Nordeste 21 Nordeste 0 1014 0.4 40
2018-08-03 10:00:00 28.4 2 Norte 8 Noroeste 0 1014.2 0.7 52
2018-08-03 09:00:00 24.7 4 Norte 9 Noroeste 0 1013.8 0.7 60
2018-08-03 08:00:00 22.5 3 Nordeste 11 Nordeste 0 1013.6 0.4 65
2018-08-03 07:00:00 22.5 5 Norte 9 Norte 0 1013.5 0.3 68
2018-08-03 06:00:00 22 0 Calma 8 Noroeste 0 1013.1 -- 70
2018-08-03 05:00:00 22.3 4 Norte 8 Norte 0 1013.2 -0.3 70
2018-08-03 04:00:00 23.9 5 Sudeste 11 Sudeste 0 1013.2 -0.3 59
2018-08-03 03:00:00 24.7 5 Sudeste 10 Este 0 -- -- 58
2018-08-03 02:00:00 23.4 0 Calma 9 Este 0 1013.5 0.4 63
2018-08-03 01:00:00 24.2 3 Norte 8 Norte 0 1013.5 1.2 62
2018-08-03 00:00:00 24.1 0 Calma 4 Este 0 1013.2 1.7 60
2018-08-02 23:00:00 25.1 0 Calma 9 Este 0 1013.1 2.1 55
2018-08-02 22:00:00 27.5 4 Sudeste 8 Este 0 1012.3 1.5 48
2018-08-02 21:00:00 28.9 2 Oeste 10 Sur 0 1011.5 -- 47
2018-08-02 20:00:00 30.1 3 Sur 16 Sur 0 1011 -- 46
2018-08-02 19:00:00 29.5 8 Sur 22 Sur 0 1010.8 -- 47
2018-08-02 18:00:00 -- 12 Sur 33 Sur 0 -- -- --
2018-08-02 17:00:00 -- 16 Sudeste 33 Sur 0 -- -- --
2018-08-02 16:00:00 -- 14 Sudeste 26 Sudeste 0 -- -- --
2018-08-02 15:00:00 -- 12 Sur 27 Este 0 -- -- --
2018-08-02 14:00:00 -- 9 Sudeste 17 Este 0 -- -- --
2018-08-02 13:00:00 33.6 8 Este 21 Este 0 1011.6 -0.2 33
2018-08-02 12:00:00 -- 10 Este 23 Este 0 -- -- --
2018-08-02 11:00:00 31.5 9 Este 20 Nordeste 0 1011.7 0.9 37
2018-08-02 10:00:00 29.1 3 Nordeste 10 Nordeste 0 1011.8 1.4 43
2018-08-02 09:00:00 26.8 2 Nordeste 13 Este 0 1011.2 0.9 46
2018-08-02 08:00:00 24.6 2 Nordeste 11 Este 0 1010.8 0.5 49
2018-08-02 07:00:00 23.8 7 Este 11 Nordeste 0 1010.4 0 54
2018-08-02 06:00:00 23.5 3 Nordeste 10 Nordeste 0 1010.3 -0.4 60
2018-08-02 05:00:00 23.2 3 Este 9 Nordeste 0 1010.3 -0.6 63
2018-08-02 04:00:00 23.3 3 Nordeste 6 Noroeste 0 1010.4 -0.5 64
2018-08-02 03:00:00 23.6 4 Noroeste 6 Oeste 0 1010.7 0.2 61
2018-08-02 02:00:00 24.1 3 Noroeste 6 Noroeste 0 1010.9 0.7 59
2018-08-02 01:00:00 24 2 Norte 8 Norte 0 1010.9 1.3 61
2018-08-02 00:00:00 24.4 3 Nordeste 5 Este 0 1010.5 -- 59
2018-08-01 23:00:00 26.8 3 Sudeste 13 Sudeste 0 1010.2 -- 50
2018-08-01 22:00:00 26.6 0 Calma 8 Sudoeste 0 1009.6 -- 47
2018-08-01 21:00:00 -- 5 Sudoeste 9 Sudoeste 0 -- -- --
2018-08-01 20:00:00 -- 6 Sudoeste 14 Sudoeste 0 -- -- --
2018-08-01 19:00:00 -- 9 Sudoeste 19 Sur 0 -- -- --
2018-08-01 18:00:00 -- 10 Sudoeste 20 Sudoeste 0 -- -- --
2018-08-01 17:00:00 -- 8 Sur 15 Sudoeste 0 -- -- --
2018-08-01 16:00:00 -- 8 Sudoeste 17 Sudoeste 0 -- -- --
2018-08-01 15:00:00 -- 9 Sudoeste 17 Sur 0 -- -- --
2018-08-01 14:00:00 -- 5 Sur 14 Este 0 -- -- --
2018-08-01 13:00:00 -- 8 Este 18 Este 0 -- -- --
2018-08-01 12:00:00 30.7 3 Norte 17 Noroeste 0 1011.6 0.2 46
2018-08-01 11:00:00 26.2 7 Norte 23 Noroeste 0 1011.9 0.6 55
2018-08-01 10:00:00 23.1 9 Noroeste 25 Noroeste 0 1011.7 0.6 62
2018-08-01 09:00:00 21.6 10 Norte 30 Noroeste 0 1011.4 0.5 65
2018-08-01 08:00:00 20.6 13 Norte 28 Norte 0 1011.3 -- 67
2018-08-01 07:00:00 20.9 9 Norte 29 Noroeste 0 1011.1 0 66
2018-08-01 06:00:00 21.7 13 Norte 35 Norte 0 1010.9 -0.4 65
2018-08-01 05:00:00 22.2 13 Noroeste 32 Norte 0 -- -- 65
2018-08-01 04:00:00 22.8 15 Norte 37 Norte 0 1011.1 -0.5 64
2018-08-01 03:00:00 23.8 14 Noroeste 29 Norte 0 1011.3 -0.4 64
2018-08-01 02:00:00 24.7 13 Noroeste 32 Norte 0 1011.6 -0.1 61
2018-08-01 01:00:00 26.1 15 Norte 32 Norte 0 1011.6 0.6 56
2018-08-01 00:00:00 27.3 16 Noroeste 32 Norte 0 1011.7 0.9 52
2018-07-31 23:00:00 28.9 11 Noroeste 23 Noroeste 0 1011.7 0.7 49
2018-07-31 22:00:00 27.4 5 Oeste 15 Oeste 0 1011 -0.3 48
2018-07-31 21:00:00 29 8 Oeste 20 Oeste 0 1010.8 -1.1 46
2018-07-31 20:00:00 30.2 9 Oeste 23 Oeste 0 1011 -1.6 46
2018-07-31 19:00:00 31 10 Oeste 23 Oeste 0 1011.3 -2 46
2018-07-31 18:00:00 30.3 15 Sudoeste 30 Sudoeste 0 1011.9 -1.9 49
2018-07-31 17:00:00 29.5 15 Sudoeste 30 Sudoeste 0 1012.6 -1.5 51
2018-07-31 16:00:00 29.1 17 Sudoeste 29 Sudoeste 0 1013.3 -1.5 51
2018-07-31 15:00:00 29.2 13 Sudoeste 27 Noroeste 0 1013.8 -1.4 50
2018-07-31 14:00:00 31 12 Norte 26 Norte 0 1014.1 -1.1 43
2018-07-31 13:00:00 29.6 12 Noroeste 28 Norte 0 1014.8 -0.3 49
2018-07-31 12:00:00 26.7 10 Norte 30 Norte 0 1015.2 0.3 59
2018-07-31 11:00:00 24 16 Noroeste 37 Noroeste 0 1015.2 0.2 68
2018-07-31 10:00:00 22.1 14 Noroeste 41 Norte 0 1015.1 0.6 76
2018-07-31 09:00:00 20.5 15 Norte 38 Norte 0 1014.9 0.5 82
2018-07-31 08:00:00 19.2 15 Noroeste 42 Norte 0 1015 0.3 85
2018-07-31 07:00:00 19.6 17 Noroeste 37 Noroeste 0 1014.5 -0.3 81
2018-07-31 06:00:00 20.3 15 Norte 36 Noroeste 0 1014.4 -0.5 77
2018-07-31 05:00:00 20.6 15 Norte 37 Norte 0 1014.7 -0.5 76
2018-07-31 04:00:00 21.1 15 Norte 39 Norte 0 1014.8 -0.6 73
2018-07-31 03:00:00 21.6 18 Noroeste 41 Noroeste 0 1014.9 -0.8 70
2018-07-31 02:00:00 22.3 20 Noroeste 35 Norte 0 1015.2 -0.4 67
2018-07-31 01:00:00 22.9 17 Noroeste 39 Noroeste 0 1015.4 0.6 64
2018-07-31 00:00:00 23.7 15 Noroeste 35 Noroeste 0 1015.7 1.6 61
2018-07-30 23:00:00 25.1 13 Noroeste 27 Norte 0 1015.6 1.5 56
2018-07-30 22:00:00 27.1 10 Noroeste 27 Noroeste 0 1014.8 0.4 52
2018-07-30 21:00:00 24.7 6 Oeste 24 Sudoeste 0 1014.1 -1 59
2018-07-30 20:00:00 25 13 Sudoeste 26 Oeste 0 1014.1 -1.4 60
2018-07-30 19:00:00 25.1 16 Sudoeste 33 Oeste 0 1014.4 -- 57
2018-07-30 18:00:00 24.6 17 Sudoeste 33 Sudoeste 0 1015.1 -1.2 55
2018-07-30 17:00:00 25 21 Sudoeste 37 Sudoeste 0 1015.5 -1.2 55
2018-07-30 16:00:00 25.8 21 Sudoeste 35 Sudoeste 0 -- -- 52
2018-07-30 15:00:00 25.8 19 Sudoeste 30 Sudoeste 0 1016.3 -0.8 53
2018-07-30 14:00:00 25.7 16 Sudoeste 25 Sudoeste 0 1016.7 -0.8 52
2018-07-30 13:00:00 28.3 8 Noroeste 21 Oeste 0 1017.1 -0.6 49
2018-07-30 12:00:00 25.3 9 Noroeste 28 Noroeste 0 1017.1 -0.4 56
2018-07-30 11:00:00 22.7 11 Noroeste 31 Noroeste 0 1017.5 0.4 64
2018-07-30 10:00:00 20.2 16 Norte 35 Noroeste 0 1017.7 0.9 72
2018-07-30 09:00:00 18.9 13 Noroeste 33 Noroeste 0 1017.5 1 76
2018-07-30 08:00:00 17.7 8 Norte 22 Norte 0 1017.1 0.4 77
2018-07-30 07:00:00 17.8 13 Noroeste 30 Norte 0 1016.8 0 76
2018-07-30 06:00:00 18.1 8 Norte 22 Noroeste 0 1016.5 -0.5 73
2018-07-30 05:00:00 18.3 7 Noroeste 26 Noroeste 0 1016.7 -0.4 70
2018-07-30 04:00:00 19.2 10 Noroeste 30 Norte 0 1016.8 -0.1 67
2018-07-30 03:00:00 19.9 13 Noroeste 34 Norte 0 1017 0 63
2018-07-30 02:00:00 20.6 14 Noroeste 32 Noroeste 0 1017.1 0.5 60
2018-07-30 01:00:00 21.2 14 Noroeste 31 Norte 0 1016.9 1.2 57
2018-07-30 00:00:00 22.1 11 Noroeste 33 Noroeste 0 1017 1.8 54
2018-07-29 23:00:00 23.7 16 Noroeste 32 Norte 0 1016.6 1.6 49
2018-07-29 22:00:00 25 10 Noroeste 27 Noroeste 0 1015.7 0.2 46
2018-07-29 21:00:00 26.7 8 Noroeste 19 Norte 0 1015.2 -0.5 46
2018-07-29 20:00:00 23.6 7 Sudoeste 25 Sudoeste 0 1015 -1.3 61
2018-07-29 19:00:00 23.8 15 Sudoeste 32 Sudoeste 0 1015.5 -1.5 59
2018-07-29 18:00:00 25.8 17 Sudoeste 30 Sudoeste 0 1015.7 -1.6 54
2018-07-29 17:00:00 25.1 19 Sudoeste 34 Sudoeste 0 1016.3 -1.3 57
2018-07-29 16:00:00 24.6 18 Sudoeste 32 Sudoeste 0 1017 -0.5 59
2018-07-29 15:00:00 25.1 18 Sudoeste 32 Sudoeste 0 1017.3 -- 57
2018-07-29 14:00:00 23.2 18 Sudoeste 27 Sudoeste 0 1017.6 -0.1 58
2018-07-29 13:00:00 25.5 12 Noroeste 26 Noroeste 0 1017.5 0 50
2018-07-29 12:00:00 23.5 10 Noroeste 26 Norte 0 -- -- 55
2018-07-29 11:00:00 22 10 Noroeste 32 Noroeste 0 1017.7 1 62
2018-07-29 10:00:00 19.9 15 Norte 57 Norte 0 1017.5 1.1 70
2018-07-29 09:00:00 18.3 12 Noroeste 31 Noroeste 0 1017.2 1 77
2018-07-29 08:00:00 17.3 14 Noroeste 26 Noroeste 0 1016.7 0.6 79
2018-07-29 07:00:00 17.4 8 Norte 21 Noroeste 0 1016.4 0.4 78
2018-07-29 06:00:00 18 9 Noroeste 22 Norte 0 1016.2 0.2 75
2018-07-29 05:00:00 18.3 8 Noroeste 27 Noroeste 0 1016.1 -- 74
2018-07-29 04:00:00 18.9 13 Noroeste 28 Noroeste 0 1016 -- 71
2018-07-29 03:00:00 19.5 11 Noroeste 31 Norte 0 1016 0.5 70
2018-07-29 02:00:00 -- 10 Noroeste 33 Noroeste 0 -- -- --
2018-07-29 01:00:00 -- -- -- -- -- -- -- -- --
2018-07-29 00:00:00 23.4 14 Noroeste 31 Noroeste 0 1015.5 1.6 59
2018-07-28 23:00:00 24.6 14 Noroeste 30 Noroeste 0 1015.1 1.5 57
2018-07-28 22:00:00 26 11 Noroeste 29 Noroeste 0 1014.2 0.6 56
2018-07-28 21:00:00 23.4 3 Sudoeste 18 Sudoeste 0 1013.9 -0.1 67
2018-07-28 20:00:00 23.4 11 Sudoeste 21 Sudoeste 0 1013.6 -- 67
2018-07-28 19:00:00 24.6 11 Sudoeste 30 Sudoeste 0 1013.6 -1 63
2018-07-28 18:00:00 25 18 Sudoeste 32 Sudoeste 0 1014 -0.9 55
2018-07-28 17:00:00 -- 21 Sudoeste 41 Sudoeste 0 -- -- --
2018-07-28 16:00:00 25.6 18 Sudoeste 35 Sudoeste 0 1014.6 -0.7 54
2018-07-28 15:00:00 24.7 19 Sudoeste 30 Sudoeste 0 1014.9 0.1 54
2018-07-28 14:00:00 25.4 15 Sudoeste 27 Sudoeste 0 1015 0.3 52
2018-07-28 13:00:00 24.4 15 Sudoeste 24 Sudoeste 0 1015.3 0.7 53
2018-07-28 12:00:00 24.8 9 Noroeste 23 Noroeste 0 1014.8 0.3 50
2018-07-28 11:00:00 23 7 Noroeste 26 Norte 0 1014.7 0.4 60
2018-07-28 10:00:00 20.6 8 Norte 30 Noroeste 0 1014.6 0.8 68
2018-07-28 09:00:00 18 12 Norte 24 Noroeste 0 1014.5 1 77
2018-07-28 08:00:00 16.8 10 Noroeste 27 Norte 0 1014.3 0.7 79
2018-07-28 07:00:00 17.3 9 Noroeste 31 Noroeste 0 1013.8 0.4 74
2018-07-28 06:00:00 17.8 14 Noroeste 34 Norte 0 1013.5 -0.1 72
2018-07-28 05:00:00 18.4 16 Noroeste 32 Noroeste 0 1013.6 0 70
2018-07-28 04:00:00 19.2 12 Noroeste 31 Norte 0 1013.4 -0.2 67
2018-07-28 03:00:00 20.1 15 Noroeste 33 Noroeste 0 1013.6 0.3 64
2018-07-28 02:00:00 21 14 Noroeste 34 Noroeste 0 1013.6 0.6 61
2018-07-28 01:00:00 21.6 15 Noroeste 35 Norte 0 1013.6 1.7 59
2018-07-28 00:00:00 22.5 17 Noroeste 42 Noroeste 0 1013.3 2.2 55
2018-07-27 23:00:00 24.3 15 Noroeste 39 Norte 0 1013 2.1 50
2018-07-27 22:00:00 27.6 15 Noroeste -- -- -- 1011.9 1 43
2018-07-27 21:00:00 25.4 0 Calma 14 Sudoeste 0 1011.1 -0.2 60
2018-07-27 20:00:00 25.1 7 Sudoeste 22 Sudoeste 0 1010.9 -0.9 61
2018-07-27 19:00:00 26.8 15 Sudoeste 31 Sudoeste 0 1010.9 -1.1 55
2018-07-27 18:00:00 27.7 16 Sudoeste 33 Sudoeste 0 1011.3 -1.2 52
2018-07-27 17:00:00 27.9 18 Sudoeste 30 Sudoeste 0 1011.8 -1.1 52
2018-07-27 16:00:00 28.4 18 Sudoeste 30 Sudoeste 0 1012 -1.1 48
2018-07-27 15:00:00 28.7 16 Sudoeste 28 Sudoeste 0 1012.5 -0.9 45
2018-07-27 14:00:00 28 13 Sudoeste 23 Oeste 0 1012.9 -0.3 48
2018-07-27 13:00:00 29.3 8 Noroeste 27 Noroeste 0 1013.1 -0.1 43
2018-07-27 12:00:00 26.5 10 Noroeste 32 Noroeste 0 1013.4 0.6 50
2018-07-27 11:00:00 23.6 17 Noroeste 37 Noroeste 0 1013.2 0.7 57
2018-07-27 10:00:00 21.3 16 Noroeste 40 Norte 0 1013.2 1 66
2018-07-27 09:00:00 18.9 15 Noroeste 40 Norte 0 1012.8 0.8 74
2018-07-27 08:00:00 17.8 13 Norte 32 Noroeste 0 1012.5 0.4 75
2018-07-27 07:00:00 17.9 14 Noroeste 35 Norte 0 1012.2 0.3 75
2018-07-27 06:00:00 18.4 13 Noroeste 31 Noroeste 0 1012 -0.2 73
2018-07-27 05:00:00 19.1 12 Noroeste 31 Noroeste 0 1012.1 -0.5 70
2018-07-27 04:00:00 20 12 Noroeste 35 Norte 0 1011.9 -0.8 66
2018-07-27 03:00:00 21.1 15 Noroeste 35 Norte 0 1012.2 -0.5 62
2018-07-27 02:00:00 22 15 Noroeste 35 Noroeste 0 1012.6 0 60
2018-07-27 01:00:00 23.1 13 Noroeste 33 Norte 0 1012.7 1.1 58
2018-07-27 00:00:00 24.1 14 Noroeste 29 Norte 0 1012.7 1.4 55
2018-07-26 23:00:00 25.1 9 Noroeste 20 Norte 0 1012.6 1.3 55
2018-07-26 22:00:00 23.7 11 Oeste 22 Oeste 0 1011.6 0.2 60
2018-07-26 21:00:00 25.1 10 Oeste 21 Sudoeste 0 1011.3 -0.9 57
2018-07-26 20:00:00 25.1 12 Sudoeste 25 Sudoeste 0 1011.3 -- 59
2018-07-26 19:00:00 25.4 15 Sudoeste 44 Sudoeste 0 1011.4 -- 58
2018-07-26 18:00:00 25 17 Sudoeste 28 Sudoeste 0 1012.2 -- 62
2018-07-26 17:00:00 25.3 18 Sudoeste 31 Sudoeste 0 -- -- 62
2018-07-26 16:00:00 25.4 18 Sudoeste 35 Sudoeste 0 -- -- 62
2018-07-26 15:00:00 -- 19 Sudoeste 34 Sudoeste 0 -- -- --
2018-07-26 14:00:00 -- 17 Sudoeste 26 Sudoeste 0 -- -- --
2018-07-26 13:00:00 25.7 13 Sudoeste 22 Sudoeste 0 1013.9 -0.1 56
2018-07-26 12:00:00 25.7 8 Noroeste 19 Norte 0 1014 0.1 55
2018-07-26 11:00:00 23.7 8 Noroeste 26 Norte 0 1014 0.6 62
2018-07-26 10:00:00 21.9 11 Noroeste 29 Norte 0 1014 0.9 68
2018-07-26 09:00:00 20.4 12 Noroeste 27 Noroeste 0 1013.9 1.1 74
2018-07-26 08:00:00 19 9 Noroeste 25 Noroeste 0 1013.4 0.4 79
2018-07-26 07:00:00 18.7 11 Noroeste 27 Norte 0 1013.1 0 80
2018-07-26 06:00:00 18.8 12 Noroeste 30 Norte 0 1012.8 -0.2 79
2018-07-26 05:00:00 19.2 11 Noroeste 32 Norte 0 1013 0.1 78
2018-07-26 04:00:00 19.8 15 Noroeste 31 Norte 0 1013.1 0.1 76
2018-07-26 03:00:00 20.2 12 Noroeste 35 Norte 0 1013 0 73
2018-07-26 02:00:00 20.9 14 Noroeste 39 Noroeste 0 1012.9 0.1 70
2018-07-26 01:00:00 21.8 14 Noroeste 34 Noroeste 0 1013 0.9 67
2018-07-26 00:00:00 23 10 Noroeste 31 Noroeste 0 1013 1.1 62
2018-07-25 23:00:00 24.1 10 Norte 23 Norte 0 1012.8 0.6 62
2018-07-25 22:00:00 22.8 2 Sur 10 Sudoeste 0 1012.1 -0.4 66
2018-07-25 21:00:00 23.4 7 Sudoeste 18 Sudoeste 0 1011.9 -- 66
2018-07-25 20:00:00 23.5 10 Sudoeste 22 Sudoeste 0 1012.2 -- 64
2018-07-25 19:00:00 24.4 13 Sudoeste 25 Sudoeste 0 1012.5 -- 59
2018-07-25 18:00:00 -- 15 Sudoeste 26 Sudoeste 0 -- -- --
2018-07-25 17:00:00 -- 15 Sudoeste 28 Sudoeste 0 -- -- --
2018-07-25 16:00:00 -- 14 Sudoeste 23 Sur 0 -- -- --
2018-07-25 15:00:00 -- 13 Sudoeste 24 Sudoeste 0 1014.2 -0.7 --
2018-07-25 14:00:00 25 14 Sudoeste 22 Sudoeste 0 1014.7 -0.3 54
2018-07-25 13:00:00 25.8 11 Sudoeste 18 Sudoeste 0 1014.8 0 54
2018-07-25 12:00:00 24.8 5 Noroeste 18 Noroeste 0 1014.9 0.1 55
2018-07-25 11:00:00 22.1 10 Noroeste 26 Noroeste 0 1015 0.7 66
2018-07-25 10:00:00 20.3 10 Noroeste 25 Norte 0 1014.8 0.9 74
2018-07-25 09:00:00 18.6 12 Noroeste 23 Noroeste 0 1014.8 1.1 80
2018-07-25 08:00:00 17.6 9 Noroeste 19 Noroeste 0 1014.3 0.5 82
2018-07-25 07:00:00 17.9 7 Norte 22 Norte 0 1013.9 0 82
2018-07-25 06:00:00 18.4 8 Noroeste 27 Norte 0 1013.7 -0.2 82
2018-07-25 05:00:00 18.8 8 Noroeste 28 Norte 0 1013.8 -- 81
2018-07-25 04:00:00 19.3 12 Noroeste 30 Noroeste 0 1013.9 -0.1 79
2018-07-25 03:00:00 19.8 13 Noroeste 33 Noroeste 0 1013.9 -0.1 76
2018-07-25 02:00:00 20.6 12 Noroeste 34 Noroeste 0 -- -- 70
2018-07-25 01:00:00 21.5 13 Noroeste 30 Norte 0 1014 1 62
2018-07-25 00:00:00 22.8 14 Noroeste 33 Noroeste 0 1014 1.4 59
2018-07-24 23:00:00 24.2 12 Noroeste 27 Norte 0 1013.7 1.2 55
2018-07-24 22:00:00 23.3 3 Oeste 22 Oeste 0 1013 0.1 61
2018-07-24 21:00:00 24.7 13 Oeste 26 Oeste 0 1012.6 -0.7 57
2018-07-24 20:00:00 25.1 15 Sudoeste 25 Sudoeste 0 1012.5 -1.6 56
2018-07-24 19:00:00 25.2 15 Sudoeste 33 Sudoeste 0 1012.9 -1.6 58
2018-07-24 18:00:00 24.5 19 Sudoeste 77 Sudoeste 0 1013.3 -1.5 57
2018-07-24 17:00:00 25.1 21 Sudoeste 38 Sudoeste 0 1014.1 -0.7 57
2018-07-24 16:00:00 25.7 19 Sudoeste 35 Sudoeste 0 1014.5 -0.7 51
2018-07-24 15:00:00 25.7 17 Sudoeste 31 Sudoeste 0 1014.8 -0.7 52
2018-07-24 14:00:00 28.2 4 Norte 21 Noroeste 0 1014.8 -0.8 43
2018-07-24 13:00:00 26.3 7 Noroeste 24 Norte 0 1015.2 -0.7 47
2018-07-24 12:00:00 23.9 9 Noroeste 28 Noroeste 0 1015.5 -0.2 55
2018-07-24 11:00:00 21.7 14 Noroeste 31 Norte 0 1015.6 0.4 64
2018-07-24 10:00:00 19.5 15 Norte 33 Noroeste 0 1015.9 1.1 74
2018-07-24 09:00:00 18.6 11 Noroeste 27 Norte 0 1015.7 1.4 79
2018-07-24 08:00:00 17 9 Noroeste 27 Norte 0 1015.2 -- 82
2018-07-24 07:00:00 17.2 9 Noroeste 31 Norte 0 1014.8 0.3 80
2018-07-24 06:00:00 17.8 12 Noroeste 28 Noroeste 0 1014.3 -0.6 77
2018-07-24 05:00:00 18 11 Noroeste 27 Norte 0 -- -- 76
2018-07-24 04:00:00 18.4 13 Noroeste 31 Norte 0 1014.5 -0.4 73
2018-07-24 03:00:00 18.7 9 Noroeste 30 Norte 0 1014.9 0.1 70
2018-07-24 02:00:00 19.4 13 Noroeste 31 Norte 0 1014.9 0.3 67
2018-07-24 01:00:00 20.1 13 Noroeste 35 Noroeste 0 1014.9 1.3 64
2018-07-24 00:00:00 21.6 13 Noroeste 32 Noroeste 0 1014.8 1.6 59
2018-07-23 23:00:00 23.1 8 Norte 21 Norte 0 1014.6 1.6 60
2018-07-23 22:00:00 22.5 5 Sudoeste 15 Sudoeste 0 1013.6 -- 65
2018-07-23 21:00:00 25 8 Sudoeste 19 Oeste 0 1013.2 -- 55
2018-07-23 20:00:00 26.1 10 Sudoeste 17 Sudoeste 0 1013 -- 58
2018-07-23 19:00:00 26.2 10 Sudoeste 22 Sudoeste 0 -- -- 60
2018-07-23 18:00:00 26.5 11 Sudoeste 22 Sudoeste 0 -- -- 59
2018-07-23 17:00:00 -- 13 Sudoeste 23 Sudoeste 0 -- -- --
2018-07-23 16:00:00 26.8 12 Sudoeste 23 Sudoeste 0 1014.7 -0.8 57
2018-07-23 15:00:00 25.8 13 Sudoeste 21 Sudoeste 0 -- -- 57
2018-07-23 14:00:00 25.6 9 Sudoeste 16 Sudoeste 0 1015.3 -- 55
2018-07-23 13:00:00 24.3 10 Sur 20 Sudeste 0 1015.5 0.6 59
2018-07-23 12:00:00 -- 9 Sudeste 18 Sudeste 0 -- -- --
2018-07-23 11:00:00 -- 2 Nordeste 13 Norte 0 -- -- --
2018-07-23 10:00:00 21.8 5 Norte 16 Noroeste 0 1014.9 1.1 71
2018-07-23 09:00:00 19.3 8 Norte 19 Noroeste 0 1014.6 1.2 82
2018-07-23 08:00:00 17.2 3 Norte 11 Nordeste 0 1014.1 1 87
2018-07-23 07:00:00 17.3 5 Este 13 Nordeste 0 1013.8 0.8 83
2018-07-23 06:00:00 18.6 4 Nordeste 17 Norte 0 1013.4 0.1 78
2018-07-23 05:00:00 19.3 4 Norte 19 Noroeste 0 1013.1 -0.5 75
2018-07-23 04:00:00 19.8 5 Norte 16 Norte 0 1013 -0.4 70
2018-07-23 03:00:00 20.5 4 Norte 15 Noroeste 0 1013.3 0.3 68
2018-07-23 02:00:00 21 5 Norte 13 Noroeste 0 1013.6 0.9 68
2018-07-23 01:00:00 19.7 2 Nordeste 6 Este 0 1013.4 1.4 79
2018-07-23 00:00:00 20 0 Calma 4 Sudoeste 0 1013 1.5 75
2018-07-22 23:00:00 21.4 2 Oeste 9 Sudoeste 0 1012.7 1.3 69
2018-07-22 22:00:00 22.3 5 Sudoeste 16 Sudoeste 0 1012 0.6 61
2018-07-22 21:00:00 23.8 9 Sudoeste 22 Sudoeste 0 1011.5 -0.1 59
2018-07-22 20:00:00 24.2 12 Sudoeste 21 Sudoeste 0 1011.4 -0.7 59
2018-07-22 19:00:00 25.6 13 Sudoeste 25 Sudoeste 0 1011.4 -1.1 54
2018-07-22 18:00:00 25.3 18 Sudoeste 28 Sudoeste 0 1011.6 -1.2 55
2018-07-22 17:00:00 25 16 Sudoeste 30 Sudoeste 0 1012.1 -0.9 57
2018-07-22 16:00:00 25.8 17 Sudoeste 30 Sudoeste 0 1012.5 -0.6 57
2018-07-22 15:00:00 24.6 15 Sudoeste 27 Sudoeste 0 1012.8 0 56
2018-07-22 14:00:00 24.6 17 Sudoeste 27 Sudoeste 0 1013 0.4 57
2018-07-22 13:00:00 26 12 Sudoeste 23 Oeste 0 1013.1 0.5 52
2018-07-22 12:00:00 25.9 8 Noroeste 25 Noroeste 0 1012.8 0.6 55
2018-07-22 11:00:00 23 12 Noroeste 29 Noroeste 0 1012.6 0.9 63
2018-07-22 10:00:00 21 15 Noroeste 33 Noroeste 0 1012.6 1.1 70
2018-07-22 09:00:00 19.3 15 Norte 33 Noroeste 0 1012.2 1.1 76
2018-07-22 08:00:00 18.1 14 Norte 32 Noroeste 0 1011.7 0.4 80
2018-07-22 07:00:00 18.1 13 Noroeste 40 Noroeste 0 1011.5 -- 78
2018-07-22 06:00:00 18.7 18 Noroeste 40 Noroeste 0 1011.1 -0.8 74
2018-07-22 05:00:00 19.5 13 Noroeste 35 Noroeste 0 1011.3 -0.9 68
2018-07-22 04:00:00 20.2 12 Noroeste 34 Norte 0 -- -- 65
2018-07-22 03:00:00 21 15 Noroeste 35 Norte 0 1011.9 -0.3 61
2018-07-22 02:00:00 22.3 15 Noroeste 37 Norte 0 1012.2 0.5 54
2018-07-22 01:00:00 23.8 13 Noroeste 33 Noroeste 0 1012.1 1.2 47
2018-07-22 00:00:00 25.3 13 Noroeste 32 Norte 0 1012.2 1.5 46
2018-07-21 23:00:00 26.7 11 Noroeste 26 Norte 0 1011.7 -- 46
2018-07-21 22:00:00 24.3 4 Sudoeste 19 Sudoeste 0 1010.9 -0.8 57
2018-07-21 21:00:00 26.6 12 Oeste 28 Oeste 0 1010.7 -- 53
2018-07-21 20:00:00 -- 17 Oeste 38 Sudoeste 0 -- -- --
2018-07-21 19:00:00 26.3 20 Sudoeste 39 Sudoeste 0 1011.7 -1.6 55
2018-07-21 18:00:00 -- 18 Sudoeste 29 Sudoeste 0 -- -- --
2018-07-21 17:00:00 27.1 16 Oeste 30 Sudoeste 0 1012.2 -2.2 49
2018-07-21 16:00:00 25.8 19 Sudoeste 30 Sudoeste 0 1013.3 -1.5 54
2018-07-21 15:00:00 25.6 18 Sudoeste 29 Sudoeste 0 1013.9 -1 52
2018-07-21 14:00:00 24.6 14 Sudoeste 24 Sudoeste 0 1014.4 -0.4 57
2018-07-21 13:00:00 26.5 7 Noroeste 22 Oeste 0 1014.8 -0.4 52
2018-07-21 12:00:00 23.4 10 Norte 22 Noroeste 0 1014.9 -0.1 61
2018-07-21 11:00:00 21.9 8 Noroeste 24 Oeste 0 1014.8 0.6 67
2018-07-21 10:00:00 19.8 8 Noroeste 26 Norte 0 1015.2 1 73
2018-07-21 09:00:00 18.5 6 Noroeste 27 Noroeste 0 1015 1.2 78
2018-07-21 08:00:00 17.4 10 Noroeste 35 Norte 0 1014.2 0.6 79
2018-07-21 07:00:00 17.6 12 Noroeste 29 Noroeste 0 1014.2 0.4 77
2018-07-21 06:00:00 17.8 11 Noroeste 32 Noroeste 0 1013.8 -0.4 76
2018-07-21 05:00:00 18.3 13 Noroeste 37 Noroeste 0 1013.6 -1.1 73
2018-07-21 04:00:00 19.1 17 Noroeste 37 Noroeste 0 1013.8 -1.1 70
2018-07-21 03:00:00 20 17 Noroeste 38 Norte 0 1014.2 -0.4 66
2018-07-21 02:00:00 21.1 16 Noroeste 36 Norte 0 1014.7 0.6 61
2018-07-21 01:00:00 22.6 14 Noroeste 34 Norte 0 1014.9 1.8 56
2018-07-21 00:00:00 24.1 14 Noroeste 33 Noroeste 0 1014.6 1.8 52
2018-07-20 23:00:00 26 13 Noroeste 27 Noroeste 0 1014.1 1.7 48
2018-07-20 22:00:00 27.7 10 Noroeste 23 Norte 0 1013.1 0.3 44
2018-07-20 21:00:00 23.3 7 Sur 23 Sudoeste 0 1012.8 -- 64
2018-07-20 20:00:00 26.6 12 Sudoeste 21 Sudoeste 0 1012.4 -- 55
2018-07-20 19:00:00 26.6 12 Sudoeste 26 Sudoeste 0 1012.8 -1.3 55
2018-07-20 18:00:00 -- 15 Sudoeste 30 Sudoeste 0 -- -- --
2018-07-20 17:00:00 -- 17 Sudoeste 30 Sudoeste 0 -- -- --
2018-07-20 16:00:00 -- 16 Sudoeste 30 Sudoeste 0 1014.1 -1.4 --
2018-07-20 15:00:00 26.8 16 Sudoeste 27 Sudoeste 0 1014.6 -0.9 52
2018-07-20 14:00:00 30 9 Noroeste 24 Noroeste 0 1015 -0.4 44
2018-07-20 13:00:00 27.6 12 Noroeste 27 Noroeste 0 1015.5 0.3 50
2018-07-20 12:00:00 25.4 13 Noroeste 33 Norte 0 1015.5 0.3 57
2018-07-20 11:00:00 23.6 16 Norte 35 Norte 0 1015.4 0.5 62
2018-07-20 10:00:00 22.4 15 Noroeste 34 Norte 0 1015.2 0.5 68
2018-07-20 09:00:00 20.7 14 Norte 38 Noroeste 0 1015.2 0.6 73
2018-07-20 08:00:00 19.2 12 Noroeste 24 Noroeste 0 1014.9 0.2 79
2018-07-20 07:00:00 18.8 10 Norte 28 Norte 0 1014.7 -0.1 79
2018-07-20 06:00:00 18.8 12 Norte 27 Noroeste 0 1014.6 -0.4 79
2018-07-20 05:00:00 18.9 12 Noroeste 34 Norte 0 1014.7 -0.5 77
2018-07-20 04:00:00 19.4 12 Noroeste 30 Noroeste 0 1014.8 -0.2 73
2018-07-20 03:00:00 20.3 15 Noroeste 34 Noroeste 0 1015 0.3 69
2018-07-20 02:00:00 21.1 16 Noroeste 40 Norte 0 1015.2 0.7 66
2018-07-20 01:00:00 22.2 17 Noroeste 36 Noroeste 0 1015 1.1 61
2018-07-20 00:00:00 23.5 15 Norte 31 Norte 0 1014.7 1.5 57